sensor_id;sensor_type;location;lat;lon;timestamp;P1;durP1;ratioP1;P2;durP2;ratioP2
34783;SDS011;20998;51.388;7.032;2023-04-24T00:01:04;1.00;;;0.80;;
34783;SDS011;20998;51.388;7.032;2023-04-24T00:03:32;1.03;;;0.87;;
34783;SDS011;20998;51.388;7.032;2023-04-24T00:05:58;2.00;;;1.00;;
34783;SDS011;20998;51.388;7.032;2023-04-24T00:08:25;0.50;;;0.50;;
34783;SDS011;20998;51.388;7.032;2023-04-24T00:10:51;0.70;;;0.70;;
34783;SDS011;20998;51.388;7.032;2023-04-24T00:13:18;0.70;;;0.70;;
34783;SDS011;20998;51.388;7.032;2023-04-24T00:15:43;0.40;;;0.40;;
34783;SDS011;20998;51.388;7.032;2023-04-24T00:18:09;2.47;;;0.70;;
34783;SDS011;20998;51.388;7.032;2023-04-24T00:20:35;0.90;;;0.70;;
34783;SDS011;20998;51.388;7.032;2023-04-24T00:23:01;0.60;;;0.60;;
34783;SDS011;20998;51.388;7.032;2023-04-24T00:25:27;0.63;;;0.63;;
34783;SDS011;20998;51.388;7.032;2023-04-24T00:27:53;0.60;;;0.60;;
34783;SDS011;20998;51.388;7.032;2023-04-24T00:30:19;1.97;;;0.50;;
34783;SDS011;20998;51.388;7.032;2023-04-24T00:32:45;2.20;;;0.93;;
34783;SDS011;20998;51.388;7.032;2023-04-24T00:35:11;0.63;;;0.57;;
34783;SDS011;20998;51.388;7.032;2023-04-24T00:37:37;1.50;;;1.07;;
34783;SDS011;20998;51.388;7.032;2023-04-24T00:40:03;1.20;;;0.60;;
34783;SDS011;20998;51.388;7.032;2023-04-24T00:42:29;0.60;;;0.60;;
34783;SDS011;20998;51.388;7.032;2023-04-24T00:44:55;0.83;;;0.80;;
34783;SDS011;20998;51.388;7.032;2023-04-24T00:47:21;1.07;;;0.90;;
34783;SDS011;20998;51.388;7.032;2023-04-24T00:49:47;2.20;;;0.83;;
34783;SDS011;20998;51.388;7.032;2023-04-24T00:52:13;7.30;;;0.90;;
34783;SDS011;20998;51.388;7.032;2023-04-24T00:54:43;4.07;;;1.20;;
34783;SDS011;20998;51.388;7.032;2023-04-24T00:57:10;2.90;;;1.20;;
34783;SDS011;20998;51.388;7.032;2023-04-24T00:59:36;0.93;;;0.80;;
34783;SDS011;20998;51.388;7.032;2023-04-24T01:02:02;0.97;;;0.80;;
34783;SDS011;20998;51.388;7.032;2023-04-24T01:04:28;1.77;;;1.20;;
34783;SDS011;20998;51.388;7.032;2023-04-24T01:06:54;3.53;;;0.80;;
34783;SDS011;20998;51.388;7.032;2023-04-24T01:09:21;1.20;;;1.10;;
34783;SDS011;20998;51.388;7.032;2023-04-24T01:11:48;2.27;;;1.43;;
34783;SDS011;20998;51.388;7.032;2023-04-24T01:14:14;1.00;;;0.90;;
34783;SDS011;20998;51.388;7.032;2023-04-24T01:16:40;1.67;;;1.47;;
34783;SDS011;20998;51.388;7.032;2023-04-24T01:19:06;2.80;;;1.30;;
34783;SDS011;20998;51.388;7.032;2023-04-24T01:21:36;1.23;;;1.13;;
34783;SDS011;20998;51.388;7.032;2023-04-24T01:24:03;2.40;;;1.23;;
34783;SDS011;20998;51.388;7.032;2023-04-24T01:26:30;1.47;;;1.07;;
34783;SDS011;20998;51.388;7.032;2023-04-24T01:28:56;1.27;;;1.17;;
34783;SDS011;20998;51.388;7.032;2023-04-24T01:31:22;4.13;;;1.60;;
34783;SDS011;20998;51.388;7.032;2023-04-24T01:33:49;3.40;;;1.57;;
34783;SDS011;20998;51.388;7.032;2023-04-24T01:36:16;4.50;;;1.40;;
34783;SDS011;20998;51.388;7.032;2023-04-24T01:38:42;3.23;;;1.50;;
34783;SDS011;20998;51.388;7.032;2023-04-24T01:41:08;1.97;;;1.50;;
34783;SDS011;20998;51.388;7.032;2023-04-24T01:43:34;2.77;;;1.37;;
34783;SDS011;20998;51.388;7.032;2023-04-24T01:46:00;1.90;;;1.33;;
34783;SDS011;20998;51.388;7.032;2023-04-24T01:48:26;4.87;;;1.23;;
34783;SDS011;20998;51.388;7.032;2023-04-24T01:50:52;1.77;;;1.50;;
34783;SDS011;20998;51.388;7.032;2023-04-24T01:53:19;5.90;;;1.50;;
34783;SDS011;20998;51.388;7.032;2023-04-24T01:55:45;4.47;;;1.33;;
34783;SDS011;20998;51.388;7.032;2023-04-24T01:58:11;2.50;;;1.40;;
34783;SDS011;20998;51.388;7.032;2023-04-24T02:00:37;1.53;;;1.43;;
34783;SDS011;20998;51.388;7.032;2023-04-24T02:03:03;6.23;;;2.40;;
34783;SDS011;20998;51.388;7.032;2023-04-24T02:05:29;14.07;;;3.07;;
34783;SDS011;20998;51.388;7.032;2023-04-24T02:07:55;4.77;;;2.83;;
34783;SDS011;20998;51.388;7.032;2023-04-24T02:10:21;7.80;;;2.23;;
34783;SDS011;20998;51.388;7.032;2023-04-24T02:12:47;4.07;;;2.77;;
34783;SDS011;20998;51.388;7.032;2023-04-24T02:15:13;4.50;;;2.57;;
34783;SDS011;20998;51.388;7.032;2023-04-24T02:17:39;2.50;;;1.63;;
34783;SDS011;20998;51.388;7.032;2023-04-24T02:20:06;12.83;;;3.53;;
34783;SDS011;20998;51.388;7.032;2023-04-24T02:22:32;6.27;;;3.30;;
34783;SDS011;20998;51.388;7.032;2023-04-24T02:24:58;5.03;;;3.20;;
34783;SDS011;20998;51.388;7.032;2023-04-24T02:27:24;5.07;;;3.30;;
34783;SDS011;20998;51.388;7.032;2023-04-24T02:29:50;6.40;;;3.17;;
34783;SDS011;20998;51.388;7.032;2023-04-24T02:32:16;4.23;;;3.03;;
34783;SDS011;20998;51.388;7.032;2023-04-24T02:34:42;5.10;;;2.83;;
34783;SDS011;20998;51.388;7.032;2023-04-24T02:37:08;5.43;;;3.10;;
34783;SDS011;20998;51.388;7.032;2023-04-24T02:39:34;4.97;;;3.43;;
34783;SDS011;20998;51.388;7.032;2023-04-24T02:42:00;6.43;;;3.67;;
34783;SDS011;20998;51.388;7.032;2023-04-24T02:44:26;6.43;;;3.40;;
34783;SDS011;20998;51.388;7.032;2023-04-24T02:46:52;7.13;;;4.37;;
34783;SDS011;20998;51.388;7.032;2023-04-24T02:49:18;9.60;;;3.37;;
34783;SDS011;20998;51.388;7.032;2023-04-24T02:51:44;7.70;;;4.10;;
34783;SDS011;20998;51.388;7.032;2023-04-24T02:54:10;7.83;;;3.37;;
34783;SDS011;20998;51.388;7.032;2023-04-24T02:56:36;6.73;;;4.47;;
34783;SDS011;20998;51.388;7.032;2023-04-24T02:59:02;8.50;;;3.83;;
34783;SDS011;20998;51.388;7.032;2023-04-24T03:01:28;9.10;;;3.80;;
34783;SDS011;20998;51.388;7.032;2023-04-24T03:03:54;6.93;;;3.67;;
34783;SDS011;20998;51.388;7.032;2023-04-24T03:06:20;8.30;;;4.20;;
34783;SDS011;20998;51.388;7.032;2023-04-24T03:08:46;4.50;;;3.10;;
34783;SDS011;20998;51.388;7.032;2023-04-24T03:11:12;6.50;;;3.87;;
34783;SDS011;20998;51.388;7.032;2023-04-24T03:13:38;7.37;;;3.70;;
34783;SDS011;20998;51.388;7.032;2023-04-24T03:16:04;11.23;;;4.27;;
34783;SDS011;20998;51.388;7.032;2023-04-24T03:18:30;13.37;;;5.23;;
34783;SDS011;20998;51.388;7.032;2023-04-24T03:20:56;8.53;;;4.70;;
34783;SDS011;20998;51.388;7.032;2023-04-24T03:23:22;8.20;;;4.27;;
34783;SDS011;20998;51.388;7.032;2023-04-24T03:25:48;11.93;;;4.43;;
34783;SDS011;20998;51.388;7.032;2023-04-24T03:28:14;9.87;;;3.73;;
34783;SDS011;20998;51.388;7.032;2023-04-24T03:30:40;13.53;;;4.60;;
34783;SDS011;20998;51.388;7.032;2023-04-24T03:33:06;12.40;;;4.77;;
34783;SDS011;20998;51.388;7.032;2023-04-24T03:35:32;12.70;;;5.00;;
34783;SDS011;20998;51.388;7.032;2023-04-24T03:37:58;11.33;;;4.83;;
34783;SDS011;20998;51.388;7.032;2023-04-24T03:40:24;10.20;;;4.33;;
34783;SDS011;20998;51.388;7.032;2023-04-24T03:42:50;5.97;;;3.97;;
34783;SDS011;20998;51.388;7.032;2023-04-24T03:45:16;11.63;;;4.67;;
34783;SDS011;20998;51.388;7.032;2023-04-24T03:47:41;9.80;;;4.13;;
34783;SDS011;20998;51.388;7.032;2023-04-24T03:50:07;8.00;;;4.90;;
34783;SDS011;20998;51.388;7.032;2023-04-24T03:52:33;5.57;;;3.63;;
34783;SDS011;20998;51.388;7.032;2023-04-24T03:55:00;9.30;;;4.77;;
34783;SDS011;20998;51.388;7.032;2023-04-24T03:57:26;9.33;;;5.23;;
34783;SDS011;20998;51.388;7.032;2023-04-24T03:59:51;10.63;;;4.20;;
34783;SDS011;20998;51.388;7.032;2023-04-24T04:02:18;7.57;;;3.83;;
34783;SDS011;20998;51.388;7.032;2023-04-24T04:04:44;10.57;;;4.70;;
34783;SDS011;20998;51.388;7.032;2023-04-24T04:07:10;6.47;;;4.10;;
34783;SDS011;20998;51.388;7.032;2023-04-24T04:09:36;15.00;;;4.97;;
34783;SDS011;20998;51.388;7.032;2023-04-24T04:12:01;10.47;;;4.70;;
34783;SDS011;20998;51.388;7.032;2023-04-24T04:14:27;7.30;;;4.43;;
34783;SDS011;20998;51.388;7.032;2023-04-24T04:16:53;7.57;;;4.63;;
34783;SDS011;20998;51.388;7.032;2023-04-24T04:19:20;7.20;;;4.23;;
34783;SDS011;20998;51.388;7.032;2023-04-24T04:21:45;10.13;;;5.00;;
34783;SDS011;20998;51.388;7.032;2023-04-24T04:24:17;9.57;;;4.33;;
34783;SDS011;20998;51.388;7.032;2023-04-24T04:26:43;15.70;;;5.90;;
34783;SDS011;20998;51.388;7.032;2023-04-24T04:29:11;7.73;;;4.47;;
34783;SDS011;20998;51.388;7.032;2023-04-24T04:31:38;9.97;;;4.60;;
34783;SDS011;20998;51.388;7.032;2023-04-24T04:34:04;7.57;;;4.13;;
34783;SDS011;20998;51.388;7.032;2023-04-24T04:36:30;5.77;;;3.47;;
34783;SDS011;20998;51.388;7.032;2023-04-24T04:38:56;7.17;;;4.47;;
34783;SDS011;20998;51.388;7.032;2023-04-24T04:41:24;9.37;;;4.40;;
34783;SDS011;20998;51.388;7.032;2023-04-24T04:43:51;12.57;;;4.03;;
34783;SDS011;20998;51.388;7.032;2023-04-24T04:46:17;6.70;;;4.00;;
34783;SDS011;20998;51.388;7.032;2023-04-24T04:48:43;7.03;;;3.90;;
34783;SDS011;20998;51.388;7.032;2023-04-24T04:51:09;10.27;;;4.43;;
34783;SDS011;20998;51.388;7.032;2023-04-24T04:53:35;5.37;;;3.77;;
34783;SDS011;20998;51.388;7.032;2023-04-24T04:56:01;10.10;;;5.17;;
34783;SDS011;20998;51.388;7.032;2023-04-24T04:58:27;26.13;;;4.67;;
34783;SDS011;20998;51.388;7.032;2023-04-24T05:00:53;19.07;;;4.83;;
34783;SDS011;20998;51.388;7.032;2023-04-24T05:03:19;9.80;;;4.47;;
34783;SDS011;20998;51.388;7.032;2023-04-24T05:05:45;8.43;;;4.13;;
34783;SDS011;20998;51.388;7.032;2023-04-24T05:08:11;5.67;;;3.50;;
34783;SDS011;20998;51.388;7.032;2023-04-24T05:10:37;6.73;;;3.73;;
34783;SDS011;20998;51.388;7.032;2023-04-24T05:13:03;7.03;;;3.90;;
34783;SDS011;20998;51.388;7.032;2023-04-24T05:15:29;5.77;;;4.00;;
34783;SDS011;20998;51.388;7.032;2023-04-24T05:17:55;6.37;;;3.93;;
34783;SDS011;20998;51.388;7.032;2023-04-24T05:20:21;6.40;;;4.07;;
34783;SDS011;20998;51.388;7.032;2023-04-24T05:22:47;6.67;;;3.13;;
34783;SDS011;20998;51.388;7.032;2023-04-24T05:25:13;7.10;;;4.20;;
34783;SDS011;20998;51.388;7.032;2023-04-24T05:27:39;5.63;;;3.83;;
34783;SDS011;20998;51.388;7.032;2023-04-24T05:30:06;9.83;;;3.77;;
34783;SDS011;20998;51.388;7.032;2023-04-24T05:32:32;5.77;;;4.03;;
34783;SDS011;20998;51.388;7.032;2023-04-24T05:34:58;4.17;;;3.07;;
34783;SDS011;20998;51.388;7.032;2023-04-24T05:37:24;8.57;;;4.67;;
34783;SDS011;20998;51.388;7.032;2023-04-24T05:39:50;7.80;;;4.53;;
34783;SDS011;20998;51.388;7.032;2023-04-24T05:42:16;5.57;;;3.97;;
34783;SDS011;20998;51.388;7.032;2023-04-24T05:44:42;9.47;;;4.60;;
34783;SDS011;20998;51.388;7.032;2023-04-24T05:47:08;8.70;;;4.30;;
34783;SDS011;20998;51.388;7.032;2023-04-24T05:49:34;9.23;;;4.27;;
34783;SDS011;20998;51.388;7.032;2023-04-24T05:52:00;6.37;;;4.20;;
34783;SDS011;20998;51.388;7.032;2023-04-24T05:54:25;6.60;;;4.07;;
34783;SDS011;20998;51.388;7.032;2023-04-24T05:56:51;5.50;;;3.50;;
34783;SDS011;20998;51.388;7.032;2023-04-24T05:59:19;5.70;;;3.70;;
34783;SDS011;20998;51.388;7.032;2023-04-24T06:01:45;5.27;;;3.63;;
34783;SDS011;20998;51.388;7.032;2023-04-24T06:04:11;5.57;;;3.73;;
34783;SDS011;20998;51.388;7.032;2023-04-24T06:06:38;9.03;;;3.67;;
34783;SDS011;20998;51.388;7.032;2023-04-24T06:09:05;8.03;;;3.80;;
34783;SDS011;20998;51.388;7.032;2023-04-24T06:11:31;7.37;;;3.73;;
34783;SDS011;20998;51.388;7.032;2023-04-24T06:13:57;3.23;;;2.23;;
34783;SDS011;20998;51.388;7.032;2023-04-24T06:16:23;11.43;;;4.77;;
34783;SDS011;20998;51.388;7.032;2023-04-24T06:18:49;6.13;;;2.80;;
34783;SDS011;20998;51.388;7.032;2023-04-24T06:21:16;11.00;;;3.70;;
34783;SDS011;20998;51.388;7.032;2023-04-24T06:23:41;11.60;;;3.27;;
34783;SDS011;20998;51.388;7.032;2023-04-24T06:26:07;4.70;;;3.10;;
34783;SDS011;20998;51.388;7.032;2023-04-24T06:28:33;6.33;;;3.77;;
34783;SDS011;20998;51.388;7.032;2023-04-24T06:31:00;8.37;;;2.83;;
34783;SDS011;20998;51.388;7.032;2023-04-24T06:33:25;6.33;;;4.00;;
34783;SDS011;20998;51.388;7.032;2023-04-24T06:35:51;5.33;;;2.70;;
34783;SDS011;20998;51.388;7.032;2023-04-24T06:38:17;5.97;;;3.17;;
34783;SDS011;20998;51.388;7.032;2023-04-24T06:40:43;8.03;;;3.87;;
34783;SDS011;20998;51.388;7.032;2023-04-24T06:43:09;5.83;;;3.43;;
34783;SDS011;20998;51.388;7.032;2023-04-24T06:45:35;4.63;;;3.00;;
34783;SDS011;20998;51.388;7.032;2023-04-24T06:48:03;5.60;;;3.37;;
34783;SDS011;20998;51.388;7.032;2023-04-24T06:50:29;5.13;;;3.47;;
34783;SDS011;20998;51.388;7.032;2023-04-24T06:52:55;4.47;;;3.10;;
34783;SDS011;20998;51.388;7.032;2023-04-24T06:55:21;4.33;;;2.77;;
34783;SDS011;20998;51.388;7.032;2023-04-24T06:57:48;5.90;;;3.00;;
34783;SDS011;20998;51.388;7.032;2023-04-24T07:00:14;6.07;;;3.43;;
34783;SDS011;20998;51.388;7.032;2023-04-24T07:02:39;3.27;;;1.73;;
34783;SDS011;20998;51.388;7.032;2023-04-24T07:05:06;6.77;;;2.10;;
34783;SDS011;20998;51.388;7.032;2023-04-24T07:07:33;3.20;;;1.77;;
34783;SDS011;20998;51.388;7.032;2023-04-24T07:09:59;2.53;;;1.50;;
34783;SDS011;20998;51.388;7.032;2023-04-24T07:12:25;2.87;;;2.03;;
34783;SDS011;20998;51.388;7.032;2023-04-24T07:14:51;2.67;;;2.07;;
34783;SDS011;20998;51.388;7.032;2023-04-24T07:17:17;3.23;;;2.10;;
34783;SDS011;20998;51.388;7.032;2023-04-24T07:19:43;2.47;;;2.13;;
34783;SDS011;20998;51.388;7.032;2023-04-24T07:22:09;4.20;;;2.07;;
34783;SDS011;20998;51.388;7.032;2023-04-24T07:24:41;2.73;;;1.70;;
34783;SDS011;20998;51.388;7.032;2023-04-24T07:27:08;2.90;;;1.47;;
34783;SDS011;20998;51.388;7.032;2023-04-24T07:29:34;2.13;;;1.80;;
34783;SDS011;20998;51.388;7.032;2023-04-24T07:32:00;2.73;;;1.90;;
34783;SDS011;20998;51.388;7.032;2023-04-24T07:34:26;2.77;;;1.90;;
34783;SDS011;20998;51.388;7.032;2023-04-24T07:36:52;3.70;;;1.83;;
34783;SDS011;20998;51.388;7.032;2023-04-24T07:39:18;2.07;;;1.20;;
34783;SDS011;20998;51.388;7.032;2023-04-24T07:41:44;1.73;;;1.00;;
34783;SDS011;20998;51.388;7.032;2023-04-24T07:44:10;1.80;;;1.40;;
34783;SDS011;20998;51.388;7.032;2023-04-24T07:46:36;1.47;;;0.70;;
34783;SDS011;20998;51.388;7.032;2023-04-24T07:49:02;0.77;;;0.70;;
34783;SDS011;20998;51.388;7.032;2023-04-24T07:51:29;0.37;;;0.37;;
34783;SDS011;20998;51.388;7.032;2023-04-24T07:53:56;0.83;;;0.70;;
34783;SDS011;20998;51.388;7.032;2023-04-24T07:56:22;1.37;;;0.80;;
34783;SDS011;20998;51.388;7.032;2023-04-24T07:58:48;0.60;;;0.60;;
34783;SDS011;20998;51.388;7.032;2023-04-24T08:01:14;0.30;;;0.30;;
34783;SDS011;20998;51.388;7.032;2023-04-24T08:03:40;0.50;;;0.50;;
34783;SDS011;20998;51.388;7.032;2023-04-24T08:06:06;7.63;;;0.80;;
34783;SDS011;20998;51.388;7.032;2023-04-24T08:08:32;0.90;;;0.60;;
34783;SDS011;20998;51.388;7.032;2023-04-24T08:10:58;0.40;;;0.40;;
34783;SDS011;20998;51.388;7.032;2023-04-24T08:13:24;0.37;;;0.37;;
34783;SDS011;20998;51.388;7.032;2023-04-24T08:15:50;0.83;;;0.40;;
34783;SDS011;20998;51.388;7.032;2023-04-24T08:18:16;0.80;;;0.80;;
34783;SDS011;20998;51.388;7.032;2023-04-24T08:20:42;0.30;;;0.20;;
34783;SDS011;20998;51.388;7.032;2023-04-24T08:23:08;0.27;;;0.27;;
34783;SDS011;20998;51.388;7.032;2023-04-24T08:25:34;0.47;;;0.47;;
34783;SDS011;20998;51.388;7.032;2023-04-24T08:28:01;0.60;;;0.40;;
34783;SDS011;20998;51.388;7.032;2023-04-24T08:30:28;1.43;;;0.70;;
34783;SDS011;20998;51.388;7.032;2023-04-24T08:32:54;1.53;;;0.57;;
34783;SDS011;20998;51.388;7.032;2023-04-24T08:35:20;0.60;;;0.60;;
34783;SDS011;20998;51.388;7.032;2023-04-24T08:37:45;3.37;;;1.50;;
34783;SDS011;20998;51.388;7.032;2023-04-24T08:40:12;2.77;;;1.70;;
34783;SDS011;20998;51.388;7.032;2023-04-24T08:42:41;1.80;;;0.90;;
34783;SDS011;20998;51.388;7.032;2023-04-24T08:45:08;0.53;;;0.53;;
34783;SDS011;20998;51.388;7.032;2023-04-24T08:47:35;3.83;;;1.53;;
34783;SDS011;20998;51.388;7.032;2023-04-24T08:50:02;1.30;;;0.90;;
34783;SDS011;20998;51.388;7.032;2023-04-24T08:52:28;2.30;;;0.97;;
34783;SDS011;20998;51.388;7.032;2023-04-24T08:54:54;0.70;;;0.70;;
34783;SDS011;20998;51.388;7.032;2023-04-24T08:57:20;1.40;;;1.00;;
34783;SDS011;20998;51.388;7.032;2023-04-24T08:59:47;1.40;;;0.80;;
34783;SDS011;20998;51.388;7.032;2023-04-24T09:02:13;1.20;;;1.03;;
34783;SDS011;20998;51.388;7.032;2023-04-24T09:04:40;1.20;;;0.90;;
34783;SDS011;20998;51.388;7.032;2023-04-24T09:07:06;1.43;;;0.97;;
34783;SDS011;20998;51.388;7.032;2023-04-24T09:09:33;2.67;;;0.93;;
34783;SDS011;20998;51.388;7.032;2023-04-24T09:12:00;1.60;;;0.63;;
34783;SDS011;20998;51.388;7.032;2023-04-24T09:14:27;0.60;;;0.50;;
34783;SDS011;20998;51.388;7.032;2023-04-24T09:16:53;0.37;;;0.37;;
34783;SDS011;20998;51.388;7.032;2023-04-24T09:19:19;0.53;;;0.53;;
34783;SDS011;20998;51.388;7.032;2023-04-24T09:21:46;0.93;;;0.90;;
34783;SDS011;20998;51.388;7.032;2023-04-24T09:24:16;0.80;;;0.70;;
34783;SDS011;20998;51.388;7.032;2023-04-24T09:26:45;3.00;;;1.10;;
34783;SDS011;20998;51.388;7.032;2023-04-24T09:29:14;1.97;;;1.53;;
34783;SDS011;20998;51.388;7.032;2023-04-24T09:31:42;3.17;;;1.73;;
34783;SDS011;20998;51.388;7.032;2023-04-24T09:34:08;3.93;;;1.87;;
34783;SDS011;20998;51.388;7.032;2023-04-24T09:36:35;4.10;;;2.50;;
34783;SDS011;20998;51.388;7.032;2023-04-24T09:39:02;4.37;;;2.47;;
34783;SDS011;20998;51.388;7.032;2023-04-24T09:41:51;2.87;;;2.07;;
34783;SDS011;20998;51.388;7.032;2023-04-24T09:44:25;2.80;;;1.77;;
34783;SDS011;20998;51.388;7.032;2023-04-24T09:46:53;1.73;;;1.40;;
34783;SDS011;20998;51.388;7.032;2023-04-24T09:51:49;2.80;;;1.93;;
34783;SDS011;20998;51.388;7.032;2023-04-24T09:54:19;3.37;;;1.97;;
34783;SDS011;20998;51.388;7.032;2023-04-24T09:56:47;7.10;;;2.03;;
34783;SDS011;20998;51.388;7.032;2023-04-24T09:59:14;4.47;;;2.13;;
34783;SDS011;20998;51.388;7.032;2023-04-24T10:01:41;6.30;;;2.47;;
34783;SDS011;20998;51.388;7.032;2023-04-24T10:04:16;6.70;;;2.80;;
34783;SDS011;20998;51.388;7.032;2023-04-24T10:06:42;5.60;;;2.87;;
34783;SDS011;20998;51.388;7.032;2023-04-24T10:09:08;3.30;;;2.20;;
34783;SDS011;20998;51.388;7.032;2023-04-24T10:11:37;3.00;;;2.40;;
34783;SDS011;20998;51.388;7.032;2023-04-24T10:14:03;6.37;;;2.97;;
34783;SDS011;20998;51.388;7.032;2023-04-24T10:16:29;3.27;;;2.30;;
34783;SDS011;20998;51.388;7.032;2023-04-24T10:18:58;6.23;;;2.80;;
34783;SDS011;20998;51.388;7.032;2023-04-24T10:21:25;6.57;;;2.77;;
34783;SDS011;20998;51.388;7.032;2023-04-24T10:23:51;5.23;;;3.07;;
34783;SDS011;20998;51.388;7.032;2023-04-24T10:26:18;7.97;;;2.63;;
34783;SDS011;20998;51.388;7.032;2023-04-24T10:28:45;4.77;;;2.57;;
34783;SDS011;20998;51.388;7.032;2023-04-24T10:31:11;7.70;;;2.57;;
34783;SDS011;20998;51.388;7.032;2023-04-24T10:33:38;4.63;;;2.80;;
34783;SDS011;20998;51.388;7.032;2023-04-24T10:36:11;5.47;;;2.63;;
34783;SDS011;20998;51.388;7.032;2023-04-24T10:38:39;9.17;;;3.27;;
34783;SDS011;20998;51.388;7.032;2023-04-24T10:41:10;5.00;;;2.87;;
34783;SDS011;20998;51.388;7.032;2023-04-24T10:43:45;5.63;;;3.13;;
34783;SDS011;20998;51.388;7.032;2023-04-24T10:46:16;13.67;;;3.07;;
34783;SDS011;20998;51.388;7.032;2023-04-24T10:48:55;6.03;;;2.87;;
34783;SDS011;20998;51.388;7.032;2023-04-24T10:51:21;11.40;;;3.50;;
34783;SDS011;20998;51.388;7.032;2023-04-24T10:53:51;5.67;;;2.90;;
34783;SDS011;20998;51.388;7.032;2023-04-24T10:56:17;5.37;;;2.60;;
34783;SDS011;20998;51.388;7.032;2023-04-24T10:58:44;6.10;;;2.80;;
34783;SDS011;20998;51.388;7.032;2023-04-24T11:01:33;10.73;;;3.53;;
34783;SDS011;20998;51.388;7.032;2023-04-24T11:03:59;4.63;;;2.70;;
34783;SDS011;20998;51.388;7.032;2023-04-24T11:06:29;5.10;;;2.90;;
34783;SDS011;20998;51.388;7.032;2023-04-24T11:09:06;9.67;;;3.20;;
34783;SDS011;20998;51.388;7.032;2023-04-24T11:11:34;9.67;;;3.27;;
34783;SDS011;20998;51.388;7.032;2023-04-24T11:14:02;7.80;;;3.20;;
34783;SDS011;20998;51.388;7.032;2023-04-24T11:21:55;11.77;;;3.03;;
34783;SDS011;20998;51.388;7.032;2023-04-24T11:24:27;7.10;;;3.50;;
34783;SDS011;20998;51.388;7.032;2023-04-24T11:27:17;10.37;;;3.97;;
34783;SDS011;20998;51.388;7.032;2023-04-24T11:32:14;9.43;;;3.87;;
34783;SDS011;20998;51.388;7.032;2023-04-24T11:34:41;13.23;;;4.67;;
34783;SDS011;20998;51.388;7.032;2023-04-24T11:37:06;10.73;;;4.77;;
34783;SDS011;20998;51.388;7.032;2023-04-24T11:39:36;20.13;;;4.73;;
34783;SDS011;20998;51.388;7.032;2023-04-24T11:42:02;10.17;;;3.70;;
34783;SDS011;20998;51.388;7.032;2023-04-24T11:44:28;12.43;;;4.50;;
34783;SDS011;20998;51.388;7.032;2023-04-24T11:46:56;13.43;;;5.30;;
34783;SDS011;20998;51.388;7.032;2023-04-24T11:49:23;9.40;;;4.20;;
34783;SDS011;20998;51.388;7.032;2023-04-24T11:51:49;10.30;;;4.13;;
34783;SDS011;20998;51.388;7.032;2023-04-24T11:54:15;13.47;;;3.73;;
34783;SDS011;20998;51.388;7.032;2023-04-24T11:56:45;9.00;;;4.43;;
34783;SDS011;20998;51.388;7.032;2023-04-24T11:59:12;6.37;;;3.17;;
34783;SDS011;20998;51.388;7.032;2023-04-24T12:01:44;7.73;;;4.33;;
34783;SDS011;20998;51.388;7.032;2023-04-24T12:04:10;18.33;;;4.93;;
34783;SDS011;20998;51.388;7.032;2023-04-24T12:06:36;7.63;;;3.97;;
34783;SDS011;20998;51.388;7.032;2023-04-24T12:09:02;21.23;;;5.70;;
34783;SDS011;20998;51.388;7.032;2023-04-24T12:11:29;9.47;;;4.70;;
34783;SDS011;20998;51.388;7.032;2023-04-24T12:13:55;21.43;;;6.63;;
34783;SDS011;20998;51.388;7.032;2023-04-24T12:16:21;9.83;;;4.83;;
34783;SDS011;20998;51.388;7.032;2023-04-24T12:18:47;15.37;;;4.20;;
34783;SDS011;20998;51.388;7.032;2023-04-24T12:21:17;6.47;;;3.87;;
34783;SDS011;20998;51.388;7.032;2023-04-24T12:23:47;5.53;;;3.43;;
34783;SDS011;20998;51.388;7.032;2023-04-24T12:26:17;7.73;;;3.93;;
34783;SDS011;20998;51.388;7.032;2023-04-24T12:28:45;5.60;;;3.23;;
34783;SDS011;20998;51.388;7.032;2023-04-24T12:31:13;6.47;;;3.33;;
34783;SDS011;20998;51.388;7.032;2023-04-24T12:33:39;12.77;;;3.80;;
34783;SDS011;20998;51.388;7.032;2023-04-24T12:36:05;21.33;;;3.10;;
34783;SDS011;20998;51.388;7.032;2023-04-24T12:38:31;6.03;;;2.47;;
34783;SDS011;20998;51.388;7.032;2023-04-24T12:41:08;4.63;;;2.20;;
34783;SDS011;20998;51.388;7.032;2023-04-24T12:43:35;9.97;;;2.80;;
34783;SDS011;20998;51.388;7.032;2023-04-24T12:46:02;4.50;;;2.03;;
34783;SDS011;20998;51.388;7.032;2023-04-24T12:48:28;2.53;;;2.00;;
34783;SDS011;20998;51.388;7.032;2023-04-24T12:50:57;7.07;;;2.27;;
34783;SDS011;20998;51.388;7.032;2023-04-24T12:53:26;7.47;;;2.23;;
34783;SDS011;20998;51.388;7.032;2023-04-24T12:55:53;5.70;;;2.30;;
34783;SDS011;20998;51.388;7.032;2023-04-24T12:58:20;2.77;;;1.93;;
34783;SDS011;20998;51.388;7.032;2023-04-24T13:00:45;5.57;;;1.90;;
34783;SDS011;20998;51.388;7.032;2023-04-24T13:03:12;4.03;;;1.63;;
34783;SDS011;20998;51.388;7.032;2023-04-24T13:05:38;4.77;;;1.87;;
34783;SDS011;20998;51.388;7.032;2023-04-24T13:08:04;2.63;;;1.30;;
34783;SDS011;20998;51.388;7.032;2023-04-24T13:10:30;9.37;;;1.70;;
34783;SDS011;20998;51.388;7.032;2023-04-24T13:12:57;3.97;;;1.77;;
34783;SDS011;20998;51.388;7.032;2023-04-24T13:15:23;1.40;;;1.03;;
34783;SDS011;20998;51.388;7.032;2023-04-24T13:17:50;1.50;;;1.00;;
34783;SDS011;20998;51.388;7.032;2023-04-24T13:20:15;1.20;;;0.87;;
34783;SDS011;20998;51.388;7.032;2023-04-24T13:22:42;1.87;;;1.07;;
34783;SDS011;20998;51.388;7.032;2023-04-24T13:25:08;3.33;;;1.43;;
34783;SDS011;20998;51.388;7.032;2023-04-24T13:27:35;4.73;;;1.60;;
34783;SDS011;20998;51.388;7.032;2023-04-24T13:30:01;5.93;;;2.13;;
34783;SDS011;20998;51.388;7.032;2023-04-24T13:32:27;1.87;;;1.00;;
34783;SDS011;20998;51.388;7.032;2023-04-24T13:34:53;1.97;;;1.37;;
34783;SDS011;20998;51.388;7.032;2023-04-24T13:37:19;4.37;;;1.43;;
34783;SDS011;20998;51.388;7.032;2023-04-24T13:39:46;12.53;;;2.00;;
34783;SDS011;20998;51.388;7.032;2023-04-24T13:42:12;0.93;;;0.80;;
34783;SDS011;20998;51.388;7.032;2023-04-24T13:44:38;4.37;;;1.00;;
34783;SDS011;20998;51.388;7.032;2023-04-24T13:47:04;8.83;;;1.63;;
34783;SDS011;20998;51.388;7.032;2023-04-24T13:49:29;5.80;;;1.07;;
34783;SDS011;20998;51.388;7.032;2023-04-24T13:51:56;1.87;;;0.80;;
34783;SDS011;20998;51.388;7.032;2023-04-24T13:54:22;1.67;;;0.93;;
34783;SDS011;20998;51.388;7.032;2023-04-24T13:56:51;3.00;;;1.30;;
34783;SDS011;20998;51.388;7.032;2023-04-24T13:59:17;2.90;;;1.60;;
34783;SDS011;20998;51.388;7.032;2023-04-24T14:01:43;5.37;;;1.20;;
34783;SDS011;20998;51.388;7.032;2023-04-24T14:04:10;1.07;;;0.93;;
34783;SDS011;20998;51.388;7.032;2023-04-24T14:06:36;9.60;;;1.80;;
34783;SDS011;20998;51.388;7.032;2023-04-24T14:09:02;5.77;;;2.23;;
34783;SDS011;20998;51.388;7.032;2023-04-24T14:11:28;4.17;;;2.27;;
34783;SDS011;20998;51.388;7.032;2023-04-24T14:13:54;5.33;;;1.57;;
34783;SDS011;20998;51.388;7.032;2023-04-24T14:16:23;3.03;;;1.60;;
34783;SDS011;20998;51.388;7.032;2023-04-24T14:18:49;2.40;;;1.60;;
34783;SDS011;20998;51.388;7.032;2023-04-24T14:21:15;3.10;;;1.50;;
34783;SDS011;20998;51.388;7.032;2023-04-24T14:23:41;5.30;;;1.93;;
34783;SDS011;20998;51.388;7.032;2023-04-24T14:26:07;4.67;;;1.20;;
34783;SDS011;20998;51.388;7.032;2023-04-24T14:28:33;3.23;;;1.40;;
34783;SDS011;20998;51.388;7.032;2023-04-24T14:31:01;3.07;;;0.77;;
34783;SDS011;20998;51.388;7.032;2023-04-24T14:33:27;2.00;;;1.37;;
34783;SDS011;20998;51.388;7.032;2023-04-24T14:35:53;2.20;;;1.10;;
34783;SDS011;20998;51.388;7.032;2023-04-24T14:38:19;3.57;;;1.33;;
34783;SDS011;20998;51.388;7.032;2023-04-24T14:40:45;1.67;;;1.10;;
34783;SDS011;20998;51.388;7.032;2023-04-24T14:43:11;4.50;;;2.07;;
34783;SDS011;20998;51.388;7.032;2023-04-24T14:45:37;1.27;;;0.90;;
34783;SDS011;20998;51.388;7.032;2023-04-24T14:48:03;3.17;;;1.13;;
34783;SDS011;20998;51.388;7.032;2023-04-24T14:50:29;0.83;;;0.80;;
34783;SDS011;20998;51.388;7.032;2023-04-24T14:52:55;2.03;;;0.77;;